sensor_id;sensor_type;location;lat;lon;timestamp;pressure;altitude;pressure_sealevel;temperature;humidity
65832;BME280;52593;42.648;23.332;2023-05-31T00:00:43;94616.28;;;15.81;83.81
65832;BME280;52593;42.648;23.332;2023-05-31T00:03:08;94615.44;;;15.74;83.91
65832;BME280;52593;42.648;23.332;2023-05-31T00:05:33;94622.09;;;15.64;83.80
65832;BME280;52593;42.648;23.332;2023-05-31T00:07:59;94626.25;;;15.60;84.14
65832;BME280;52593;42.648;23.332;2023-05-31T00:10:24;94632.06;;;15.57;83.93
65832;BME280;52593;42.648;23.332;2023-05-31T00:12:49;94627.94;;;15.61;84.03
65832;BME280;52593;42.648;23.332;2023-05-31T00:15:15;94627.97;;;15.55;84.21
65832;BME280;52593;42.648;23.332;2023-05-31T00:17:40;94626.28;;;15.54;84.33
65832;BME280;52593;42.648;23.332;2023-05-31T00:20:06;94629.00;;;15.54;83.61
65832;BME280;52593;42.648;23.332;2023-05-31T00:22:31;94625.91;;;15.50;83.51
65832;BME280;52593;42.648;23.332;2023-05-31T00:24:57;94625.47;;;15.46;84.02
65832;BME280;52593;42.648;23.332;2023-05-31T00:27:22;94621.97;;;15.46;84.18
65832;BME280;52593;42.648;23.332;2023-05-31T00:29:47;94621.31;;;15.50;84.21
65832;BME280;52593;42.648;23.332;2023-05-31T00:32:13;94620.72;;;15.42;84.65
65832;BME280;52593;42.648;23.332;2023-05-31T00:34:38;94626.34;;;15.33;84.90
65832;BME280;52593;42.648;23.332;2023-05-31T00:37:04;94626.78;;;15.30;85.13
65832;BME280;52593;42.648;23.332;2023-05-31T00:39:29;94632.97;;;15.31;86.25
65832;BME280;52593;42.648;23.332;2023-05-31T00:41:55;94631.97;;;15.25;85.88
65832;BME280;52593;42.648;23.332;2023-05-31T00:44:20;94627.81;;;15.23;86.25
65832;BME280;52593;42.648;23.332;2023-05-31T00:46:46;94629.28;;;15.25;86.53
65832;BME280;52593;42.648;23.332;2023-05-31T00:49:12;94631.78;;;15.27;86.61
65832;BME280;52593;42.648;23.332;2023-05-31T00:51:37;94632.38;;;15.29;87.01
65832;BME280;52593;42.648;23.332;2023-05-31T00:54:03;94637.75;;;15.29;87.37
65832;BME280;52593;42.648;23.332;2023-05-31T00:56:29;94635.50;;;15.26;87.74
65832;BME280;52593;42.648;23.332;2023-05-31T00:58:56;94635.88;;;15.29;87.46
65832;BME280;52593;42.648;23.332;2023-05-31T01:01:22;94635.69;;;15.31;87.38
65832;BME280;52593;42.648;23.332;2023-05-31T01:03:52;94638.38;;;15.38;88.25
65832;BME280;52593;42.648;23.332;2023-05-31T01:06:18;94638.56;;;15.43;87.92
65832;BME280;52593;42.648;23.332;2023-05-31T01:08:44;94629.22;;;15.39;87.67
65832;BME280;52593;42.648;23.332;2023-05-31T01:11:19;94632.78;;;15.26;87.64
65832;BME280;52593;42.648;23.332;2023-05-31T01:14:45;94636.72;;;15.23;87.68
65832;BME280;52593;42.648;23.332;2023-05-31T01:16:54;94634.88;;;15.24;87.95
65832;BME280;52593;42.648;23.332;2023-05-31T01:19:45;94638.19;;;15.26;87.62
65832;BME280;52593;42.648;23.332;2023-05-31T01:27:41;94636.97;;;15.15;87.96
65832;BME280;52593;42.648;23.332;2023-05-31T01:30:07;94639.03;;;15.06;87.93
65832;BME280;52593;42.648;23.332;2023-05-31T01:32:34;94638.00;;;15.07;88.39
65832;BME280;52593;42.648;23.332;2023-05-31T01:35:01;94631.56;;;15.08;88.77
65832;BME280;52593;42.648;23.332;2023-05-31T01:37:26;94633.84;;;15.18;88.29
65832;BME280;52593;42.648;23.332;2023-05-31T01:39:52;94633.44;;;15.21;88.05
65832;BME280;52593;42.648;23.332;2023-05-31T01:42:19;94634.88;;;15.17;88.29
65832;BME280;52593;42.648;23.332;2023-05-31T01:44:46;94638.63;;;15.16;89.42
65832;BME280;52593;42.648;23.332;2023-05-31T01:47:13;94638.78;;;15.28;88.94
65832;BME280;52593;42.648;23.332;2023-05-31T01:49:40;94638.22;;;15.19;88.51
65832;BME280;52593;42.648;23.332;2023-05-31T01:52:08;94634.69;;;15.12;88.76
65832;BME280;52593;42.648;23.332;2023-05-31T01:54:35;94633.63;;;15.13;88.89
65832;BME280;52593;42.648;23.332;2023-05-31T01:57:03;94633.63;;;15.13;88.92
65832;BME280;52593;42.648;23.332;2023-05-31T01:59:32;94632.00;;;15.12;88.83
65832;BME280;52593;42.648;23.332;2023-05-31T02:01:58;94640.91;;;15.06;89.19
65832;BME280;52593;42.648;23.332;2023-05-31T02:04:23;94641.72;;;15.06;89.81
65832;BME280;52593;42.648;23.332;2023-05-31T02:06:48;94637.59;;;15.04;90.23
65832;BME280;52593;42.648;23.332;2023-05-31T02:09:16;94649.63;;;15.01;90.57
65832;BME280;52593;42.648;23.332;2023-05-31T02:11:41;94631.78;;;15.00;90.24
65832;BME280;52593;42.648;23.332;2023-05-31T02:14:07;94643.19;;;15.02;90.63
65832;BME280;52593;42.648;23.332;2023-05-31T02:16:32;94647.75;;;15.02;90.91
65832;BME280;52593;42.648;23.332;2023-05-31T02:18:57;94645.47;;;14.98;91.41
65832;BME280;52593;42.648;23.332;2023-05-31T02:21:23;94646.72;;;15.03;90.85
65832;BME280;52593;42.648;23.332;2023-05-31T02:23:49;94648.78;;;15.07;90.03
65832;BME280;52593;42.648;23.332;2023-05-31T02:26:15;94648.38;;;15.10;89.01
65832;BME280;52593;42.648;23.332;2023-05-31T02:28:41;94640.28;;;15.10;88.67
65832;BME280;52593;42.648;23.332;2023-05-31T02:31:07;94639.03;;;15.06;88.77
65832;BME280;52593;42.648;23.332;2023-05-31T02:33:32;94641.34;;;15.03;89.31
65832;BME280;52593;42.648;23.332;2023-05-31T02:35:58;94634.69;;;14.98;90.10
65832;BME280;52593;42.648;23.332;2023-05-31T02:38:24;94643.81;;;15.04;90.33
65832;BME280;52593;42.648;23.332;2023-05-31T02:40:49;94644.44;;;15.06;90.03
65832;BME280;52593;42.648;23.332;2023-05-31T02:43:14;94645.25;;;15.00;89.74
65832;BME280;52593;42.648;23.332;2023-05-31T02:45:40;94641.75;;;15.00;90.59
65832;BME280;52593;42.648;23.332;2023-05-31T02:48:05;94643.63;;;15.06;90.13
65832;BME280;52593;42.648;23.332;2023-05-31T02:50:32;94638.63;;;14.89;91.06
65832;BME280;52593;42.648;23.332;2023-05-31T02:52:58;94638.63;;;14.89;91.15
65832;BME280;52593;42.648;23.332;2023-05-31T02:55:25;94634.28;;;14.88;91.29
65832;BME280;52593;42.648;23.332;2023-05-31T02:57:50;94642.56;;;14.87;91.32
65832;BME280;52593;42.648;23.332;2023-05-31T03:00:16;94642.16;;;14.83;91.58
65832;BME280;52593;42.648;23.332;2023-05-31T03:02:43;94639.66;;;14.88;92.01
65832;BME280;52593;42.648;23.332;2023-05-31T03:05:09;94642.16;;;14.90;92.20
65832;BME280;52593;42.648;23.332;2023-05-31T03:07:35;94645.25;;;14.87;92.65
65832;BME280;52593;42.648;23.332;2023-05-31T03:10:01;94634.91;;;14.84;92.82
65832;BME280;52593;42.648;23.332;2023-05-31T03:12:30;94644.25;;;14.81;93.60
65832;BME280;52593;42.648;23.332;2023-05-31T03:14:55;94645.06;;;14.88;93.29
65832;BME280;52593;42.648;23.332;2023-05-31T03:17:21;94643.81;;;14.91;93.16
65832;BME280;52593;42.648;23.332;2023-05-31T03:19:46;94649.22;;;14.91;93.59
65832;BME280;52593;42.648;23.332;2023-05-31T03:22:11;94641.94;;;14.91;93.63
65832;BME280;52593;42.648;23.332;2023-05-31T03:24:37;94651.69;;;14.99;93.48
65832;BME280;52593;42.648;23.332;2023-05-31T03:27:02;94650.22;;;15.16;92.32
65832;BME280;52593;42.648;23.332;2023-05-31T03:29:28;94652.91;;;15.23;91.90
65832;BME280;52593;42.648;23.332;2023-05-31T03:31:53;94651.06;;;15.10;91.68
65832;BME280;52593;42.648;23.332;2023-05-31T03:34:19;94654.81;;;14.89;93.17
65832;BME280;52593;42.648;23.332;2023-05-31T03:36:46;94663.28;;;14.93;93.20
65832;BME280;52593;42.648;23.332;2023-05-31T03:39:12;94655.84;;;14.88;93.74
65832;BME280;52593;42.648;23.332;2023-05-31T03:41:37;94654.19;;;14.87;94.44
65832;BME280;52593;42.648;23.332;2023-05-31T03:44:02;94659.97;;;14.91;94.50
65832;BME280;52593;42.648;23.332;2023-05-31T03:46:28;94660.38;;;14.94;94.41
65832;BME280;52593;42.648;23.332;2023-05-31T03:48:53;94665.16;;;14.99;94.03
65832;BME280;52593;42.648;23.332;2023-05-31T03:51:19;94677.41;;;14.95;94.43
65832;BME280;52593;42.648;23.332;2023-05-31T03:53:44;94670.75;;;14.97;94.88
65832;BME280;52593;42.648;23.332;2023-05-31T03:56:10;94673.66;;;15.03;94.23
65832;BME280;52593;42.648;23.332;2023-05-31T03:58:35;94674.88;;;15.07;91.82
65832;BME280;52593;42.648;23.332;2023-05-31T04:01:00;94669.09;;;15.10;90.90
65832;BME280;52593;42.648;23.332;2023-05-31T04:03:27;94680.09;;;15.15;90.76
65832;BME280;52593;42.648;23.332;2023-05-31T04:05:53;94675.72;;;15.14;90.55
65832;BME280;52593;42.648;23.332;2023-05-31T04:08:18;94679.88;;;15.16;89.93
65832;BME280;52593;42.648;23.332;2023-05-31T04:10:44;94681.75;;;15.16;89.77
65832;BME280;52593;42.648;23.332;2023-05-31T04:13:09;94680.28;;;15.20;89.98
65832;BME280;52593;42.648;23.332;2023-05-31T04:15:35;94684.84;;;15.26;89.66
65832;BME280;52593;42.648;23.332;2023-05-31T04:18:00;94678.41;;;15.27;89.56
65832;BME280;52593;42.648;23.332;2023-05-31T04:20:26;94680.06;;;15.35;89.84
65832;BME280;52593;42.648;23.332;2023-05-31T04:22:52;94686.50;;;15.41;89.56
65832;BME280;52593;42.648;23.332;2023-05-31T04:25:19;94684.81;;;15.40;89.08
65832;BME280;52593;42.648;23.332;2023-05-31T04:27:45;94685.84;;;15.39;88.81
65832;BME280;52593;42.648;23.332;2023-05-31T04:30:10;94689.38;;;15.46;88.70
65832;BME280;52593;42.648;23.332;2023-05-31T04:32:36;94688.94;;;15.56;89.01
65832;BME280;52593;42.648;23.332;2023-05-31T04:35:02;94692.03;;;15.52;88.53
65832;BME280;52593;42.648;23.332;2023-05-31T04:37:32;94698.88;;;15.62;88.42
65832;BME280;52593;42.648;23.332;2023-05-31T04:39:58;94698.06;;;15.61;88.15
65832;BME280;52593;42.648;23.332;2023-05-31T04:42:24;94695.97;;;15.63;88.58
65832;BME280;52593;42.648;23.332;2023-05-31T04:44:51;94705.28;;;15.67;88.19
65832;BME280;52593;42.648;23.332;2023-05-31T04:47:17;94708.81;;;15.75;87.95
65832;BME280;52593;42.648;23.332;2023-05-31T04:49:44;94703.41;;;15.81;87.50
65832;BME280;52593;42.648;23.332;2023-05-31T04:52:11;94697.19;;;15.87;87.80
65832;BME280;52593;42.648;23.332;2023-05-31T04:54:36;94696.56;;;15.85;87.63
65832;BME280;52593;42.648;23.332;2023-05-31T04:57:02;94700.91;;;15.93;87.04
65832;BME280;52593;42.648;23.332;2023-05-31T04:59:28;94697.34;;;15.99;86.61
65832;BME280;52593;42.648;23.332;2023-05-31T05:01:53;94707.94;;;16.01;86.58
65832;BME280;52593;42.648;23.332;2023-05-31T05:04:18;94709.38;;;16.03;86.27
65832;BME280;52593;42.648;23.332;2023-05-31T05:06:44;94713.06;;;16.09;86.27
65832;BME280;52593;42.648;23.332;2023-05-31T05:09:09;94711.00;;;16.11;85.98
65832;BME280;52593;42.648;23.332;2023-05-31T05:11:35;94713.63;;;16.25;86.10
65832;BME280;52593;42.648;23.332;2023-05-31T05:14:01;94712.38;;;16.27;85.59
65832;BME280;52593;42.648;23.332;2023-05-31T05:16:26;94713.63;;;16.31;85.48
65832;BME280;52593;42.648;23.332;2023-05-31T05:18:51;94719.84;;;16.32;85.33
65832;BME280;52593;42.648;23.332;2023-05-31T05:21:17;94726.44;;;16.43;84.68
65832;BME280;52593;42.648;23.332;2023-05-31T05:23:42;94737.25;;;16.43;84.77
65832;BME280;52593;42.648;23.332;2023-05-31T05:26:08;94729.75;;;16.45;84.55
65832;BME280;52593;42.648;23.332;2023-05-31T05:28:33;94732.44;;;16.45;84.64
65832;BME280;52593;42.648;23.332;2023-05-31T05:30:59;94731.81;;;16.49;84.25
65832;BME280;52593;42.648;23.332;2023-05-31T05:33:24;94737.19;;;16.56;84.02
65832;BME280;52593;42.648;23.332;2023-05-31T05:35:51;94742.94;;;16.66;83.77
65832;BME280;52593;42.648;23.332;2023-05-31T05:38:16;94734.63;;;16.68;83.80
65832;BME280;52593;42.648;23.332;2023-05-31T05:40:42;94735.81;;;16.72;82.89
65832;BME280;52593;42.648;23.332;2023-05-31T05:43:08;94737.28;;;16.74;83.79
65832;BME280;52593;42.648;23.332;2023-05-31T05:45:33;94738.22;;;16.93;82.36
65832;BME280;52593;42.648;23.332;2023-05-31T05:47:58;94737.84;;;16.90;82.32
65832;BME280;52593;42.648;23.332;2023-05-31T05:50:24;94745.84;;;17.03;81.91
65832;BME280;52593;42.648;23.332;2023-05-31T05:52:49;94740.03;;;17.00;81.91
65832;BME280;52593;42.648;23.332;2023-05-31T05:55:15;94743.16;;;17.03;81.71
65832;BME280;52593;42.648;23.332;2023-05-31T05:57:40;94743.91;;;17.10;81.52
65832;BME280;52593;42.648;23.332;2023-05-31T06:00:06;94740.56;;;17.15;81.35
65832;BME280;52593;42.648;23.332;2023-05-31T06:02:39;94743.91;;;17.10;81.12
65832;BME280;52593;42.648;23.332;2023-05-31T06:05:06;94740.75;;;17.20;80.59
65832;BME280;52593;42.648;23.332;2023-05-31T06:07:32;94732.69;;;17.39;79.88
65832;BME280;52593;42.648;23.332;2023-05-31T06:09:57;94741.69;;;17.33;79.91
65832;BME280;52593;42.648;23.332;2023-05-31T06:12:23;94743.94;;;17.36;79.37
65832;BME280;52593;42.648;23.332;2023-05-31T06:14:48;94741.50;;;17.53;79.59
65832;BME280;52593;42.648;23.332;2023-05-31T06:17:14;94739.63;;;17.53;77.82
65832;BME280;52593;42.648;23.332;2023-05-31T06:19:39;94743.09;;;17.60;78.99
65832;BME280;52593;42.648;23.332;2023-05-31T06:22:05;94741.31;;;17.73;78.88
65832;BME280;52593;42.648;23.332;2023-05-31T06:24:31;94739.38;;;17.80;78.33
65832;BME280;52593;42.648;23.332;2023-05-31T06:26:56;94747.97;;;17.70;78.41
65832;BME280;52593;42.648;23.332;2023-05-31T06:29:22;94743.66;;;17.69;78.11
65832;BME280;52593;42.648;23.332;2023-05-31T06:31:47;94738.69;;;17.85;78.11
65832;BME280;52593;42.648;23.332;2023-05-31T06:34:12;94745.00;;;17.78;77.71
65832;BME280;52593;42.648;23.332;2023-05-31T06:36:38;94752.19;;;17.91;78.18
65832;BME280;52593;42.648;23.332;2023-05-31T06:39:03;94745.66;;;17.99;77.94
65832;BME280;52593;42.648;23.332;2023-05-31T06:41:29;94744.16;;;18.03;76.29
65832;BME280;52593;42.648;23.332;2023-05-31T06:43:57;94741.13;;;18.11;76.61
65832;BME280;52593;42.648;23.332;2023-05-31T06:46:22;94744.84;;;18.17;75.93
65832;BME280;52593;42.648;23.332;2023-05-31T06:48:48;94742.50;;;18.21;75.58
65832;BME280;52593;42.648;23.332;2023-05-31T06:51:13;94742.25;;;18.41;75.20
65832;BME280;52593;42.648;23.332;2023-05-31T06:53:39;94737.50;;;18.36;74.99
65832;BME280;52593;42.648;23.332;2023-05-31T06:56:04;94743.59;;;18.31;75.14
65832;BME280;52593;42.648;23.332;2023-05-31T06:58:31;94746.09;;;18.33;75.12
65832;BME280;52593;42.648;23.332;2023-05-31T07:00:57;94747.44;;;18.42;74.50
65832;BME280;52593;42.648;23.332;2023-05-31T07:03:22;94740.19;;;18.73;75.02
65832;BME280;52593;42.648;23.332;2023-05-31T07:05:47;94740.03;;;18.68;73.80
65832;BME280;52593;42.648;23.332;2023-05-31T07:08:13;94744.19;;;19.01;73.86
65832;BME280;52593;42.648;23.332;2023-05-31T07:10:41;94739.53;;;18.89;73.51
65832;BME280;52593;42.648;23.332;2023-05-31T07:13:06;94744.44;;;18.99;72.73
65832;BME280;52593;42.648;23.332;2023-05-31T07:15:33;94749.94;;;18.93;71.86
65832;BME280;52593;42.648;23.332;2023-05-31T07:17:58;94746.63;;;18.91;72.13
65832;BME280;52593;42.648;23.332;2023-05-31T07:20:24;94743.13;;;19.02;71.50
65832;BME280;52593;42.648;23.332;2023-05-31T07:22:49;94751.28;;;19.14;72.30
65832;BME280;52593;42.648;23.332;2023-05-31T07:25:16;94749.81;;;19.30;70.82
65832;BME280;52593;42.648;23.332;2023-05-31T07:27:41;94746.16;;;19.48;71.25
65832;BME280;52593;42.648;23.332;2023-05-31T07:30:07;94747.34;;;19.52;70.04
65832;BME280;52593;42.648;23.332;2023-05-31T07:32:33;94743.34;;;19.66;69.05
65832;BME280;52593;42.648;23.332;2023-05-31T07:34:58;94741.34;;;19.50;68.96
65832;BME280;52593;42.648;23.332;2023-05-31T07:37:23;94751.03;;;19.57;68.51
65832;BME280;52593;42.648;23.332;2023-05-31T07:39:49;94741.44;;;19.31;69.30
65832;BME280;52593;42.648;23.332;2023-05-31T07:42:14;94745.44;;;19.52;69.15
65832;BME280;52593;42.648;23.332;2023-05-31T07:44:40;94737.31;;;19.64;68.95
65832;BME280;52593;42.648;23.332;2023-05-31T07:47:05;94740.53;;;19.73;69.16
65832;BME280;52593;42.648;23.332;2023-05-31T07:49:31;94735.81;;;19.92;68.80
65832;BME280;52593;42.648;23.332;2023-05-31T07:51:56;94733.81;;;19.87;67.93
65832;BME280;52593;42.648;23.332;2023-05-31T07:54:21;94737.81;;;20.20;67.68
65832;BME280;52593;42.648;23.332;2023-05-31T07:56:47;94735.81;;;20.16;66.91
65832;BME280;52593;42.648;23.332;2023-05-31T07:59:12;94734.72;;;20.28;66.59
65832;BME280;52593;42.648;23.332;2023-05-31T08:01:38;94736.34;;;20.41;65.07
65832;BME280;52593;42.648;23.332;2023-05-31T08:04:08;94729.22;;;20.52;66.39
65832;BME280;52593;42.648;23.332;2023-05-31T08:06:34;94735.38;;;20.47;64.26
65832;BME280;52593;42.648;23.332;2023-05-31T08:09:02;94731.88;;;20.76;64.74
65832;BME280;52593;42.648;23.332;2023-05-31T08:11:30;94722.59;;;20.89;63.29
65832;BME280;52593;42.648;23.332;2023-05-31T08:13:55;94713.19;;;20.96;62.64
65832;BME280;52593;42.648;23.332;2023-05-31T08:16:21;94717.72;;;21.19;63.18
65832;BME280;52593;42.648;23.332;2023-05-31T08:18:47;94721.28;;;21.54;61.61
65832;BME280;52593;42.648;23.332;2023-05-31T08:21:12;94722.19;;;21.43;61.05
65832;BME280;52593;42.648;23.332;2023-05-31T08:23:37;94720.75;;;21.23;60.53
65832;BME280;52593;42.648;23.332;2023-05-31T08:26:03;94720.03;;;21.45;61.42
65832;BME280;52593;42.648;23.332;2023-05-31T08:28:29;94716.78;;;21.14;60.87
65832;BME280;52593;42.648;23.332;2023-05-31T08:30:57;94728.69;;;21.25;63.63
65832;BME280;52593;42.648;23.332;2023-05-31T08:33:27;94722.34;;;21.53;62.20
65832;BME280;52593;42.648;23.332;2023-05-31T08:35:54;94715.94;;;21.76;62.68
65832;BME280;52593;42.648;23.332;2023-05-31T08:38:28;94722.19;;;21.77;60.65
65832;BME280;52593;42.648;23.332;2023-05-31T08:40:57;94715.94;;;21.76;61.80
65832;BME280;52593;42.648;23.332;2023-05-31T08:43:22;94715.19;;;21.81;61.51
65832;BME280;52593;42.648;23.332;2023-05-31T08:45:50;94707.50;;;21.78;63.94
65832;BME280;52593;42.648;23.332;2023-05-31T08:48:50;94706.41;;;21.79;62.76
65832;BME280;52593;42.648;23.332;2023-05-31T08:51:18;94703.16;;;21.60;62.45
65832;BME280;52593;42.648;23.332;2023-05-31T08:53:44;94698.44;;;21.55;62.82
65832;BME280;52593;42.648;23.332;2023-05-31T08:56:12;94690.91;;;21.62;64.11
65832;BME280;52593;42.648;23.332;2023-05-31T08:58:42;94692.72;;;21.40;61.29
65832;BME280;52593;42.648;23.332;2023-05-31T09:01:07;94698.34;;;21.50;62.18
65832;BME280;52593;42.648;23.332;2023-05-31T09:03:33;94689.69;;;21.53;61.29
65832;BME280;52593;42.648;23.332;2023-05-31T09:05:59;94690.91;;;21.62;60.79
65832;BME280;52593;42.648;23.332;2023-05-31T09:08:25;94686.84;;;21.82;61.15
65832;BME280;52593;42.648;23.332;2023-05-31T09:10:50;94682.19;;;21.99;59.39
65832;BME280;52593;42.648;23.332;2023-05-31T09:13:16;94677.47;;;22.12;57.46
65832;BME280;52593;42.648;23.332;2023-05-31T09:15:43;94689.00;;;21.80;59.94
65832;BME280;52593;42.648;23.332;2023-05-31T09:18:19;94686.41;;;21.51;60.62
65832;BME280;52593;42.648;23.332;2023-05-31T09:20:46;94690.56;;;21.25;63.07
65832;BME280;52593;42.648;23.332;2023-05-31T09:23:12;94684.16;;;21.14;63.41
65832;BME280;52593;42.648;23.332;2023-05-31T09:25:48;94678.94;;;21.12;62.61
65832;BME280;52593;42.648;23.332;2023-05-31T09:28:14;94675.81;;;21.20;62.79
65832;BME280;52593;42.648;23.332;2023-05-31T09:30:40;94669.06;;;21.40;63.78
65832;BME280;52593;42.648;23.332;2023-05-31T09:33:06;94667.56;;;21.32;63.23
65832;BME280;52593;42.648;23.332;2023-05-31T09:35:32;94672.34;;;21.59;63.58
65832;BME280;52593;42.648;23.332;2023-05-31T09:38:03;94668.41;;;21.50;63.91
65832;BME280;52593;42.648;23.332;2023-05-31T09:40:31;94661.81;;;21.63;63.56
65832;BME280;52593;42.648;23.332;2023-05-31T09:43:00;94676.28;;;21.68;61.57
65832;BME280;52593;42.648;23.332;2023-05-31T09:45:26;94676.72;;;21.60;61.48
65832;BME280;52593;42.648;23.332;2023-05-31T09:47:53;94675.97;;;21.48;61.95
65832;BME280;52593;42.648;23.332;2023-05-31T09:50:22;94669.97;;;21.12;63.66
65832;BME280;52593;42.648;23.332;2023-05-31T09:52:54;94665.47;;;20.89;64.63
65832;BME280;52593;42.648;23.332;2023-05-31T09:55:19;94657.41;;;20.77;63.92
65832;BME280;52593;42.648;23.332;2023-05-31T09:57:45;94661.91;;;20.71;64.82
65832;BME280;52593;42.648;23.332;2023-05-31T10:00:14;94647.28;;;20.60;64.06
65832;BME280;52593;42.648;23.332;2023-05-31T10:02:48;94650.28;;;20.47;65.32
65832;BME280;52593;42.648;23.332;2023-05-31T10:05:15;94648.22;;;20.66;65.93
65832;BME280;52593;42.648;23.332;2023-05-31T10:07:43;94643.91;;;21.16;64.81
65832;BME280;52593;42.648;23.332;2023-05-31T10:10:09;94660.34;;;21.55;64.70
65832;BME280;52593;42.648;23.332;2023-05-31T10:12:58;94649.06;;;21.68;62.12
65832;BME280;52593;42.648;23.332;2023-05-31T10:15:25;94649.81;;;21.47;62.69
65832;BME280;52593;42.648;23.332;2023-05-31T10:18:14;94645.72;;;21.44;61.96
65832;BME280;52593;42.648;23.332;2023-05-31T10:20:56;94643.25;;;21.43;63.49
65832;BME280;52593;42.648;23.332;2023-05-31T10:23:24;94649.19;;;21.57;62.69
65832;BME280;52593;42.648;23.332;2023-05-31T10:28:36;94651.72;;;21.46;63.99
65832;BME280;52593;42.648;23.332;2023-05-31T10:31:03;94649.31;;;21.67;64.42
65832;BME280;52593;42.648;23.332;2023-05-31T10:33:30;94642.56;;;21.69;62.46
65832;BME280;52593;42.648;23.332;2023-05-31T10:35:59;94639.84;;;21.35;61.64
65832;BME280;52593;42.648;23.332;2023-05-31T10:38:30;94638.06;;;21.07;62.29
65832;BME280;52593;42.648;23.332;2023-05-31T10:41:04;94631.13;;;21.16;59.92
65832;BME280;52593;42.648;23.332;2023-05-31T10:43:41;94637.41;;;21.00;60.86
65832;BME280;52593;42.648;23.332;2023-05-31T10:46:19;94639.88;;;21.01;62.29
65832;BME280;52593;42.648;23.332;2023-05-31T10:48:52;94634.84;;;21.10;62.04
65832;BME280;52593;42.648;23.332;2023-05-31T10:51:18;94630.41;;;21.21;61.96
65832;BME280;52593;42.648;23.332;2023-05-31T10:53:47;94633.00;;;21.16;61.92
65832;BME280;52593;42.648;23.332;2023-05-31T10:56:13;94634.91;;;21.49;62.07
65832;BME280;52593;42.648;23.332;2023-05-31T10:58:41;94630.75;;;21.47;61.68
65832;BME280;52593;42.648;23.332;2023-05-31T11:01:12;94629.38;;;21.61;61.24
65832;BME280;52593;42.648;23.332;2023-05-31T11:03:49;94627.31;;;21.51;60.24
65832;BME280;52593;42.648;23.332;2023-05-31T11:06:17;94621.34;;;21.71;58.26
65832;BME280;52593;42.648;23.332;2023-05-31T11:14:01;94610.16;;;21.51;60.96
65832;BME280;52593;42.648;23.332;2023-05-31T11:16:30;94606.94;;;21.93;58.33
65832;BME280;52593;42.648;23.332;2023-05-31T11:21:51;94611.53;;;22.37;55.76
65832;BME280;52593;42.648;23.332;2023-05-31T11:26:52;94604.88;;;23.42;51.60
65832;BME280;52593;42.648;23.332;2023-05-31T11:29:18;94605.81;;;23.20;51.06
65832;BME280;52593;42.648;23.332;2023-05-31T11:34:34;94592.00;;;23.37;53.13
65832;BME280;52593;42.648;23.332;2023-05-31T11:37:01;94594.50;;;23.06;54.10
65832;BME280;52593;42.648;23.332;2023-05-31T11:39:28;94577.44;;;22.94;54.57
65832;BME280;52593;42.648;23.332;2023-05-31T11:41:54;94579.31;;;22.88;51.93
65832;BME280;52593;42.648;23.332;2023-05-31T11:44:25;94578.69;;;22.49;54.64
65832;BME280;52593;42.648;23.332;2023-05-31T11:47:00;94584.03;;;22.16;54.72
65832;BME280;52593;42.648;23.332;2023-05-31T11:49:27;94580.59;;;22.48;55.05
65832;BME280;52593;42.648;23.332;2023-05-31T11:51:56;94578.03;;;22.36;53.78
65832;BME280;52593;42.648;23.332;2023-05-31T11:54:30;94574.28;;;21.98;54.99
65832;BME280;52593;42.648;23.332;2023-05-31T11:57:04;94585.47;;;21.75;57.87
65832;BME280;52593;42.648;23.332;2023-05-31T11:59:33;94591.16;;;21.56;57.46
65832;BME280;52593;42.648;23.332;2023-05-31T12:02:00;94593.16;;;21.44;58.01
65832;BME280;52593;42.648;23.332;2023-05-31T12:07:04;94601.53;;;20.86;61.75
65832;BME280;52593;42.648;23.332;2023-05-31T12:09:32;94599.91;;;20.56;62.30
65832;BME280;52593;42.648;23.332;2023-05-31T12:11:59;94606.22;;;20.45;61.67
65832;BME280;52593;42.648;23.332;2023-05-31T12:14:25;94605.22;;;20.34;62.07
65832;BME280;52593;42.648;23.332;2023-05-31T12:16:52;94603.31;;;20.35;61.63
65832;BME280;52593;42.648;23.332;2023-05-31T12:19:17;94592.00;;;20.26;62.25
65832;BME280;52593;42.648;23.332;2023-05-31T12:21:43;94590.94;;;20.27;61.89
65832;BME280;52593;42.648;23.332;2023-05-31T12:24:14;94588.38;;;20.20;63.44
65832;BME280;52593;42.648;23.332;2023-05-31T12:26:41;94584.50;;;20.16;63.93
65832;BME280;52593;42.648;23.332;2023-05-31T12:29:08;94589.03;;;20.27;63.26
65832;BME280;52593;42.648;23.332;2023-05-31T12:31:35;94588.78;;;20.29;64.33
65832;BME280;52593;42.648;23.332;2023-05-31T12:36:46;94595.00;;;19.84;73.89
65832;BME280;52593;42.648;23.332;2023-05-31T12:41:40;94591.50;;;19.36;76.54
65832;BME280;52593;42.648;23.332;2023-05-31T12:44:06;94596.81;;;19.31;79.15
65832;BME280;52593;42.648;23.332;2023-05-31T12:46:39;94590.78;;;19.17;82.26
65832;BME280;52593;42.648;23.332;2023-05-31T12:49:22;94585.22;;;18.76;88.38
65832;BME280;52593;42.648;23.332;2023-05-31T12:52:15;94583.22;;;18.71;86.46
65832;BME280;52593;42.648;23.332;2023-05-31T12:54:41;94588.13;;;18.63;87.72
65832;BME280;52593;42.648;23.332;2023-05-31T12:57:09;94582.88;;;18.38;85.28
65832;BME280;52593;42.648;23.332;2023-05-31T12:59:35;94588.81;;;18.16;84.84
65832;BME280;52593;42.648;23.332;2023-05-31T13:02:01;94590.16;;;17.95;82.47
65832;BME280;52593;42.648;23.332;2023-05-31T13:04:28;94591.19;;;17.75;84.61
65832;BME280;52593;42.648;23.332;2023-05-31T13:06:54;94601.72;;;17.65;84.97
65832;BME280;52593;42.648;23.332;2023-05-31T13:09:19;94603.84;;;17.63;85.12
65832;BME280;52593;42.648;23.332;2023-05-31T13:11:46;94597.00;;;17.60;84.22
65832;BME280;52593;42.648;23.332;2023-05-31T13:14:15;94594.81;;;17.51;82.21
65832;BME280;52593;42.648;23.332;2023-05-31T13:16:41;94597.34;;;17.45;81.92
65832;BME280;52593;42.648;23.332;2023-05-31T13:19:07;94606.44;;;17.33;80.28